KRAP

Rapid City Regional Airport

Rapid City, South Dakota, USA
METAR KRAP 261252Z 00000KT 10SM CLR 18/14 A2986 RMK AO2 SLP084 T01830139
Observed Flight Rules
May-26 @ 12:52 UTC (31 minutes ago) Visual Flight Rules
Visibility Clouds
10 miles
  • Clear skies
Temperatures Readings
Current 18°C / 64°F
Dewpoint 14°C / 57°F
Humidity 78%
Altimeter 29.86" Hg
Pressure 1008.4 hPa
Elevation 965
METAR KRAP 261252Z 00000KT 10SM CLR 18/14 A2986 RMK AO2 SLP084 T01830139
Observed Flight Rules
May-26 @ 12:52 UTC
(31 minutes ago)
VFR
Clouds
  • Clear skies
Temperature Dewpoint
18°C / 64°F 14°C / 57°F
Humidity Altimeter Pressure
78% 29.86" Hg 1008.4 hPa